createdAt,value
2022-12-08T00:02:31.053Z,9.86
2022-12-08T00:05:35.595Z,9.83
2022-12-08T00:08:39.981Z,9.82
2022-12-08T00:11:25.950Z,9.84
2022-12-08T00:14:11.648Z,9.85
2022-12-08T00:16:58.275Z,9.89
2022-12-08T00:19:45.088Z,9.88
2022-12-08T00:22:32.398Z,9.89
2022-12-08T00:25:18.233Z,9.88
2022-12-08T00:28:04.031Z,9.91
2022-12-08T00:30:50.023Z,9.93
2022-12-08T00:33:36.223Z,9.92
2022-12-08T00:36:21.952Z,9.91
2022-12-08T00:39:07.882Z,9.96
2022-12-08T00:42:13.268Z,9.92
2022-12-08T00:44:59.330Z,9.99
2022-12-08T00:47:44.931Z,10.00
2022-12-08T00:50:31.809Z,10.01
2022-12-08T00:53:17.830Z,10.02
2022-12-08T00:56:03.745Z,10.02
2022-12-08T00:58:49.836Z,10.01
2022-12-08T01:01:36.184Z,9.96
2022-12-08T01:04:22.121Z,9.98
2022-12-08T01:07:08.409Z,9.98
2022-12-08T01:09:54.109Z,9.98
2022-12-08T01:12:40.310Z,9.98
2022-12-08T01:15:26.326Z,9.99
2022-12-08T01:18:12.486Z,10.03
2022-12-08T01:21:23.762Z,10.01
2022-12-08T01:24:20.984Z,10.07
2022-12-08T01:27:07.136Z,10.09
2022-12-08T01:29:53.163Z,10.13
2022-12-08T01:32:39.021Z,10.16
2022-12-08T01:35:24.958Z,10.18
2022-12-08T01:38:11.035Z,10.22
2022-12-08T01:40:56.919Z,10.26
2022-12-08T01:44:21.438Z,10.27
2022-12-08T01:47:07.484Z,10.28
2022-12-08T01:49:53.804Z,10.30
2022-12-08T01:52:45.998Z,10.28
2022-12-08T01:55:47.752Z,10.26
2022-12-08T01:58:40.511Z,10.27
2022-12-08T02:01:26.985Z,10.24
2022-12-08T02:04:13.245Z,10.20
2022-12-08T02:07:03.592Z,10.28
2022-12-08T02:09:53.887Z,10.28
2022-12-08T02:12:40.046Z,10.30
2022-12-08T02:15:41.186Z,10.34
2022-12-08T02:18:40.846Z,10.36
2022-12-08T02:21:56.733Z,10.37
2022-12-08T02:25:07.421Z,10.35
2022-12-08T02:28:03.947Z,10.32
2022-12-08T02:31:05.442Z,10.26
2022-12-08T02:34:12.091Z,10.20
2022-12-08T02:37:05.691Z,10.19
2022-12-08T02:39:55.461Z,10.20
2022-12-08T02:42:45.064Z,10.21
2022-12-08T02:45:32.251Z,10.23
2022-12-08T02:48:18.317Z,10.20
2022-12-08T02:51:04.884Z,10.17
2022-12-08T02:53:50.892Z,10.12
2022-12-08T02:57:02.224Z,10.07
2022-12-08T02:59:54.178Z,10.02
2022-12-08T03:03:17.783Z,9.98
2022-12-08T03:06:05.692Z,9.98
2022-12-08T03:08:52.132Z,9.99
2022-12-08T03:11:57.583Z,10.00
2022-12-08T03:14:48.714Z,10.00
2022-12-08T03:17:35.823Z,10.04
2022-12-08T03:20:24.039Z,10.02
2022-12-08T03:23:12.562Z,10.04
2022-12-08T03:26:04.381Z,10.04
2022-12-08T03:28:50.728Z,10.03
2022-12-08T03:31:40.713Z,10.03
2022-12-08T03:34:28.555Z,10.03
2022-12-08T03:37:14.883Z,10.01
2022-12-08T03:40:00.930Z,10.02
2022-12-08T03:42:46.960Z,10.01
2022-12-08T03:45:32.900Z,10.03
2022-12-08T03:48:18.730Z,10.01
2022-12-08T03:51:04.545Z,9.99
2022-12-08T03:53:50.853Z,9.98
2022-12-08T03:56:38.431Z,9.95
2022-12-08T03:59:24.632Z,9.93
2022-12-08T04:02:10.625Z,9.91
2022-12-08T04:04:56.470Z,9.86
2022-12-08T04:07:42.237Z,9.93
2022-12-08T04:10:27.999Z,9.91
2022-12-08T04:13:13.818Z,9.88
2022-12-08T04:15:59.753Z,9.85
2022-12-08T04:18:45.770Z,9.81
2022-12-08T04:21:31.810Z,9.83
2022-12-08T04:24:17.872Z,9.81
2022-12-08T04:27:03.812Z,9.79
2022-12-08T04:29:49.835Z,9.76
2022-12-08T04:32:35.577Z,9.75
2022-12-08T04:35:21.503Z,9.74
2022-12-08T04:38:07.527Z,9.75
2022-12-08T04:40:53.091Z,9.72
2022-12-08T04:43:39.039Z,9.73
2022-12-08T04:46:25.058Z,9.73
2022-12-08T04:49:10.878Z,9.74
2022-12-08T04:51:56.684Z,9.77
2022-12-08T04:54:42.362Z,9.78
2022-12-08T04:57:28.317Z,9.80
2022-12-08T05:00:14.565Z,9.77
2022-12-08T05:03:00.373Z,9.72
2022-12-08T05:05:46.656Z,9.74
2022-12-08T05:08:32.621Z,9.71
2022-12-08T05:11:19.674Z,9.65
2022-12-08T05:14:05.873Z,9.60
2022-12-08T05:16:52.084Z,9.57
2022-12-08T05:19:38.141Z,9.54
2022-12-08T05:22:24.212Z,9.52
2022-12-08T05:25:10.032Z,9.50
2022-12-08T05:28:17.586Z,9.44
2022-12-08T05:31:03.179Z,9.40
2022-12-08T05:33:52.296Z,9.41
2022-12-08T05:36:38.225Z,9.37
2022-12-08T05:39:24.282Z,9.40
2022-12-08T05:42:10.238Z,9.33
2022-12-08T05:44:56.268Z,9.37
2022-12-08T05:47:42.366Z,9.37
2022-12-08T05:50:28.143Z,9.39
2022-12-08T05:53:17.729Z,9.41
2022-12-08T05:56:03.880Z,9.41
2022-12-08T05:58:49.989Z,9.43
2022-12-08T06:01:36.017Z,9.45
2022-12-08T06:04:22.267Z,9.49
2022-12-08T06:07:14.559Z,9.51
2022-12-08T06:10:03.749Z,9.50
2022-12-08T06:12:49.900Z,9.54
2022-12-08T06:15:36.987Z,9.50
2022-12-08T06:18:23.051Z,9.53
2022-12-08T06:21:11.055Z,9.50
2022-12-08T06:23:58.771Z,9.52
2022-12-08T06:26:46.200Z,9.49
2022-12-08T06:29:32.007Z,9.53
2022-12-08T06:32:19.926Z,9.54
2022-12-08T06:35:09.273Z,9.54
2022-12-08T06:37:55.108Z,9.55
2022-12-08T06:40:41.074Z,9.50
2022-12-08T06:43:27.278Z,9.52
2022-12-08T06:46:15.527Z,9.55
2022-12-08T06:49:01.415Z,9.48
2022-12-08T06:51:55.141Z,9.52
2022-12-08T06:54:40.936Z,9.56
2022-12-08T06:57:26.723Z,9.58
2022-12-08T07:00:13.042Z,9.56
2022-12-08T07:02:59.222Z,9.58
2022-12-08T07:05:45.190Z,9.57
2022-12-08T07:08:31.408Z,9.54
2022-12-08T07:11:21.572Z,9.54
2022-12-08T07:14:08.470Z,9.55
2022-12-08T07:16:54.525Z,9.55
2022-12-08T07:19:40.335Z,9.56
2022-12-08T07:22:25.954Z,9.57
2022-12-08T07:25:11.636Z,9.58
2022-12-08T07:27:57.390Z,9.58
2022-12-08T07:30:43.195Z,9.60
2022-12-08T07:33:29.345Z,9.62
2022-12-08T07:36:15.522Z,9.61
2022-12-08T07:39:01.556Z,9.58
2022-12-08T07:41:47.507Z,9.66
2022-12-08T07:44:33.353Z,9.67
2022-12-08T07:47:19.327Z,9.68
2022-12-08T07:50:05.922Z,9.71
2022-12-08T07:52:52.104Z,9.72
2022-12-08T07:55:44.545Z,9.73
2022-12-08T07:58:30.513Z,9.78
2022-12-08T08:01:35.105Z,9.81
2022-12-08T08:04:21.261Z,9.86
2022-12-08T08:07:07.415Z,9.89
2022-12-08T08:09:53.461Z,9.92
2022-12-08T08:12:39.687Z,9.94
2022-12-08T08:15:26.049Z,9.97
2022-12-08T08:18:12.512Z,10.00
2022-12-08T08:21:06.612Z,10.03
2022-12-08T08:24:05.887Z,10.06
2022-12-08T08:26:55.236Z,10.09
2022-12-08T08:29:41.099Z,10.12
2022-12-08T08:32:27.547Z,10.12
2022-12-08T08:35:13.816Z,10.17
2022-12-08T08:37:59.922Z,10.16
2022-12-08T08:40:46.065Z,10.17
2022-12-08T08:43:37.760Z,10.15
2022-12-08T08:46:23.947Z,10.14
2022-12-08T08:49:10.080Z,10.15
2022-12-08T08:51:55.842Z,10.16
2022-12-08T08:54:41.707Z,10.11
2022-12-08T08:57:27.649Z,10.14
2022-12-08T09:00:14.489Z,10.13
2022-12-08T09:03:00.785Z,10.16
2022-12-08T09:05:46.860Z,10.15
2022-12-08T09:08:32.666Z,10.21
2022-12-08T09:11:18.883Z,10.21
2022-12-08T09:14:06.179Z,10.25
2022-12-08T09:16:52.196Z,10.26
2022-12-08T09:19:38.369Z,10.28
2022-12-08T09:22:26.150Z,10.25
2022-12-08T09:25:11.880Z,10.32
2022-12-08T09:27:57.620Z,10.34
2022-12-08T09:30:43.467Z,10.37
2022-12-08T09:33:29.538Z,10.36
2022-12-08T09:36:15.648Z,10.41
2022-12-08T09:39:01.790Z,10.45
2022-12-08T09:41:54.923Z,10.47
2022-12-08T09:44:57.303Z,10.52
2022-12-08T09:47:55.665Z,10.60
2022-12-08T09:50:54.954Z,10.65
2022-12-08T09:53:45.384Z,10.67
2022-12-08T09:56:33.773Z,10.72
2022-12-08T09:59:32.536Z,10.71
2022-12-08T10:02:26.830Z,10.76
2022-12-08T10:05:15.045Z,10.83
2022-12-08T10:08:03.838Z,10.87
2022-12-08T10:11:00.193Z,10.91
2022-12-08T10:13:55.325Z,10.95
2022-12-08T10:16:42.871Z,11.01
2022-12-08T10:19:29.189Z,11.06
2022-12-08T10:22:25.223Z,11.09
2022-12-08T10:25:38.319Z,11.08
2022-12-08T10:28:24.398Z,11.12
2022-12-08T10:31:17.385Z,11.11
2022-12-08T10:34:18.600Z,11.10
2022-12-08T10:37:09.588Z,11.09
2022-12-08T10:40:13.589Z,11.08
2022-12-08T10:42:59.970Z,11.08
2022-12-08T10:45:46.187Z,11.09
2022-12-08T10:48:32.070Z,11.06
2022-12-08T10:51:30.032Z,11.05
2022-12-08T10:54:33.631Z,11.07
2022-12-08T10:57:23.790Z,11.05
2022-12-08T11:00:15.399Z,11.05
2022-12-08T11:03:05.002Z,11.01
2022-12-08T11:05:51.046Z,11.06
2022-12-08T11:08:45.612Z,11.04
2022-12-08T11:11:58.745Z,11.05
2022-12-08T11:15:16.385Z,11.02
2022-12-08T11:18:12.786Z,11.04
2022-12-08T11:21:02.601Z,11.04
2022-12-08T11:23:50.337Z,11.08
2022-12-08T11:26:36.703Z,11.12
2022-12-08T11:29:22.794Z,11.18
2022-12-08T11:32:13.495Z,11.27
2022-12-08T11:35:03.080Z,11.32
2022-12-08T11:37:49.336Z,11.45
2022-12-08T11:40:38.388Z,11.52
2022-12-08T11:43:36.983Z,11.56
2022-12-08T11:46:34.489Z,11.61
2022-12-08T11:49:20.827Z,11.62
2022-12-08T11:52:28.060Z,11.63
2022-12-08T11:55:37.326Z,11.62
2022-12-08T11:58:32.052Z,11.62
2022-12-08T12:01:24.691Z,11.64
2022-12-08T12:04:30.239Z,11.66
2022-12-08T12:07:28.170Z,11.71
2022-12-08T12:10:30.751Z,11.75
2022-12-08T12:13:41.820Z,11.80
2022-12-08T12:16:51.266Z,11.93
2022-12-08T12:19:39.831Z,12.18
2022-12-08T12:22:27.039Z,12.28
2022-12-08T12:25:22.414Z,12.34
2022-12-08T12:28:09.298Z,12.37
2022-12-08T12:31:06.044Z,12.38
2022-12-08T12:33:54.556Z,12.32
2022-12-08T12:36:56.188Z,12.33
2022-12-08T12:40:03.290Z,12.29
2022-12-08T12:42:55.434Z,12.28
2022-12-08T12:45:45.834Z,12.25
2022-12-08T12:48:31.622Z,12.24
2022-12-08T12:51:36.825Z,12.25
2022-12-08T12:54:24.873Z,12.33
2022-12-08T12:57:10.604Z,12.39
2022-12-08T12:59:56.409Z,12.46
2022-12-08T13:02:45.229Z,12.48
2022-12-08T13:05:35.226Z,12.47
2022-12-08T13:08:26.688Z,12.46
2022-12-08T13:11:13.106Z,12.45
2022-12-08T13:14:04.216Z,12.44
2022-12-08T13:16:54.093Z,12.42
2022-12-08T13:19:40.530Z,12.38
2022-12-08T13:23:10.031Z,12.33
2022-12-08T13:26:23.734Z,12.29
2022-12-08T13:29:17.937Z,12.28
2022-12-08T13:32:39.029Z,12.26
2022-12-08T13:35:35.887Z,12.22
2022-12-08T13:38:22.930Z,12.24
2022-12-08T13:41:32.778Z,12.22
2022-12-08T13:45:18.741Z,12.24
2022-12-08T13:57:36.322Z,12.26
2022-12-08T14:00:27.459Z,12.27
2022-12-08T14:03:13.530Z,12.26
2022-12-08T14:06:15.378Z,12.27
2022-12-08T14:09:10.427Z,12.30
2022-12-08T14:12:08.181Z,12.32
2022-12-08T14:15:04.234Z,12.33
2022-12-08T14:17:57.297Z,12.32
2022-12-08T14:21:18.916Z,12.32
2022-12-08T14:23:49.161Z,12.28
2022-12-08T14:26:35.464Z,12.30
2022-12-08T14:29:34.072Z,12.33
2022-12-08T14:32:32.661Z,12.34
2022-12-08T14:35:24.068Z,12.35
2022-12-08T14:38:14.320Z,12.35
2022-12-08T14:41:03.456Z,12.37
2022-12-08T14:43:59.234Z,12.36
2022-12-08T14:47:07.078Z,12.29
2022-12-08T14:49:53.167Z,12.32
2022-12-08T14:52:43.795Z,12.28
2022-12-08T14:55:35.871Z,12.28
2022-12-08T14:58:29.379Z,12.24
2022-12-08T15:01:18.338Z,12.21
2022-12-08T15:04:10.361Z,12.19
2022-12-08T15:07:17.635Z,12.17
2022-12-08T15:10:32.043Z,12.13
2022-12-08T15:13:19.569Z,12.11
2022-12-08T15:16:28.129Z,12.07
2022-12-08T15:19:33.614Z,12.02
2022-12-08T15:22:22.920Z,12.04
2022-12-08T15:25:13.904Z,11.99
2022-12-08T15:27:59.782Z,11.95
2022-12-08T15:30:46.407Z,11.93
2022-12-08T15:33:32.654Z,11.93
2022-12-08T15:36:18.798Z,11.94
2022-12-08T15:39:06.872Z,11.90
2022-12-08T15:41:52.872Z,11.84
2022-12-08T15:44:38.934Z,11.84
2022-12-08T15:47:25.114Z,11.82
2022-12-08T15:50:21.857Z,11.75
2022-12-08T15:53:10.548Z,11.71
2022-12-08T15:59:06.167Z,11.67
2022-12-08T16:01:52.751Z,11.65
2022-12-08T16:07:45.561Z,11.61
2022-12-08T16:10:52.239Z,11.60
2022-12-08T16:13:59.542Z,11.59
2022-12-08T16:16:54.158Z,11.58
2022-12-08T16:19:40.441Z,11.55
2022-12-08T16:26:15.689Z,11.50
2022-12-08T16:28:53.962Z,11.47
2022-12-08T16:31:40.441Z,11.47
2022-12-08T16:34:26.383Z,11.44
2022-12-08T16:37:21.417Z,11.41
2022-12-08T16:40:08.365Z,11.41
2022-12-08T16:42:54.324Z,11.37
2022-12-08T16:45:44.934Z,11.37
2022-12-08T16:48:31.179Z,11.34
2022-12-08T16:51:23.407Z,11.36
2022-12-08T16:54:12.605Z,11.33
2022-12-08T16:56:58.959Z,11.29
2022-12-08T16:59:44.869Z,11.30
2022-12-08T17:02:30.966Z,11.27
2022-12-08T17:05:19.206Z,11.27
2022-12-08T17:08:05.520Z,11.22
2022-12-08T17:11:07.425Z,11.18
2022-12-08T17:13:53.701Z,11.13
2022-12-08T17:16:39.689Z,11.09
2022-12-08T17:19:25.678Z,11.03
2022-12-08T17:22:11.915Z,11.03
2022-12-08T17:24:58.110Z,10.99
2022-12-08T17:27:43.959Z,10.95
2022-12-08T17:30:29.775Z,10.93
2022-12-08T17:33:15.353Z,10.92
2022-12-08T17:36:01.176Z,10.91
2022-12-08T17:38:48.027Z,10.95
2022-12-08T17:41:33.895Z,10.95
2022-12-08T17:44:20.317Z,10.92
2022-12-08T17:47:06.190Z,10.97
2022-12-08T17:49:52.670Z,10.95
2022-12-08T17:52:38.536Z,10.95
2022-12-08T17:55:24.216Z,10.96
2022-12-08T17:58:09.953Z,10.96
2022-12-08T18:00:55.822Z,10.91
2022-12-08T18:03:41.586Z,10.95
2022-12-08T18:06:31.233Z,10.95
2022-12-08T18:09:17.710Z,10.99
2022-12-08T18:12:04.321Z,10.96
2022-12-08T18:14:52.120Z,10.97
2022-12-08T18:17:41.376Z,10.99
2022-12-08T18:20:27.759Z,10.97
2022-12-08T18:23:14.405Z,10.90
2022-12-08T18:26:00.349Z,10.94
2022-12-08T18:28:46.497Z,10.94
2022-12-08T18:31:32.556Z,10.95
2022-12-08T18:34:21.748Z,10.97
2022-12-08T18:37:08.921Z,10.94
2022-12-08T18:39:54.892Z,10.98
2022-12-08T18:42:41.173Z,11.01
2022-12-08T18:45:27.311Z,11.00
2022-12-08T18:48:13.163Z,11.03
2022-12-08T18:50:59.377Z,11.02
2022-12-08T18:53:46.260Z,11.07
2022-12-08T18:56:33.928Z,11.05
2022-12-08T18:59:20.399Z,11.06
2022-12-08T19:02:06.637Z,11.05
2022-12-08T19:04:55.692Z,11.11
2022-12-08T19:07:42.786Z,11.11
2022-12-08T19:10:29.409Z,11.11
2022-12-08T19:13:15.559Z,11.13
2022-12-08T19:16:01.761Z,11.15
2022-12-08T19:18:47.767Z,11.11
2022-12-08T19:21:34.156Z,11.12
2022-12-08T19:24:20.107Z,11.09
2022-12-08T19:27:06.341Z,11.06
2022-12-08T19:29:52.448Z,11.06
2022-12-08T19:32:38.250Z,11.08
2022-12-08T19:35:24.047Z,11.04
2022-12-08T19:38:10.132Z,11.05
2022-12-08T19:41:14.349Z,11.08
2022-12-08T19:44:18.661Z,11.04
2022-12-08T19:47:05.018Z,11.04
2022-12-08T19:49:52.142Z,11.03
2022-12-08T19:52:38.327Z,11.00
2022-12-08T19:55:25.504Z,11.04
2022-12-08T19:58:11.467Z,11.01
2022-12-08T20:00:57.495Z,10.94
2022-12-08T20:03:43.868Z,11.03
2022-12-08T20:06:29.864Z,11.00
2022-12-08T20:09:16.355Z,11.02
2022-12-08T20:12:02.119Z,11.03
2022-12-08T20:14:48.200Z,11.05
2022-12-08T20:17:35.229Z,11.05
2022-12-08T20:20:22.500Z,11.07
2022-12-08T20:23:24.268Z,10.78
2022-12-08T20:26:14.111Z,10.75
2022-12-08T20:29:01.638Z,11.09
2022-12-08T20:31:48.459Z,10.95
2022-12-08T20:34:35.312Z,11.11
2022-12-08T20:37:21.639Z,11.06
2022-12-08T20:40:08.963Z,11.13
2022-12-08T20:42:55.569Z,11.13
2022-12-08T20:45:41.828Z,11.12
2022-12-08T20:48:28.592Z,11.10
2022-12-08T20:51:19.905Z,11.10
2022-12-08T20:54:06.991Z,11.10
2022-12-08T20:56:53.436Z,11.07
2022-12-08T20:59:40.485Z,11.05
2022-12-08T21:02:27.704Z,10.99
2022-12-08T21:05:14.237Z,10.97
2022-12-08T21:08:01.008Z,10.93
2022-12-08T21:10:54.407Z,10.90
2022-12-08T21:13:43.487Z,10.91
2022-12-08T21:16:30.646Z,10.91
2022-12-08T21:19:18.535Z,10.98
2022-12-08T21:22:05.020Z,11.00
2022-12-08T21:24:51.795Z,11.02
2022-12-08T21:27:39.160Z,11.05
2022-12-08T21:30:25.209Z,11.07
2022-12-08T21:33:11.215Z,11.07
2022-12-08T21:36:16.501Z,11.10
2022-12-08T21:39:02.934Z,11.14
2022-12-08T21:42:08.690Z,11.14
2022-12-08T21:44:54.887Z,11.13
2022-12-08T21:47:41.232Z,11.10
2022-12-08T21:50:27.263Z,11.08
2022-12-08T21:53:13.165Z,11.05
2022-12-08T21:55:59.159Z,11.01
2022-12-08T21:58:45.557Z,10.94
2022-12-08T22:01:32.186Z,10.87
2022-12-08T22:04:19.543Z,10.80
2022-12-08T22:07:09.473Z,10.74
2022-12-08T22:09:55.777Z,10.68
2022-12-08T22:12:41.731Z,10.63
2022-12-08T22:15:31.071Z,10.64
2022-12-08T22:18:19.374Z,10.67
2022-12-08T22:21:15.460Z,10.67
2022-12-08T22:24:02.625Z,10.69
2022-12-08T22:26:49.526Z,10.75
2022-12-08T22:29:35.638Z,10.76
2022-12-08T22:32:22.358Z,10.77
2022-12-08T22:35:09.216Z,10.74
2022-12-08T22:37:55.423Z,10.77
2022-12-08T22:40:41.851Z,10.73
2022-12-08T22:43:28.720Z,10.76
2022-12-08T22:46:17.237Z,10.74
2022-12-08T22:49:03.243Z,10.76
2022-12-08T22:51:49.275Z,10.73
2022-12-08T22:54:35.136Z,10.70
2022-12-08T22:57:21.103Z,10.65
2022-12-08T23:00:07.857Z,10.61
2022-12-08T23:02:54.267Z,10.62
2022-12-08T23:05:41.037Z,10.62
2022-12-08T23:08:27.198Z,10.62
2022-12-08T23:11:13.596Z,10.61
2022-12-08T23:14:00.622Z,10.61
2022-12-08T23:16:47.194Z,10.64
2022-12-08T23:19:36.562Z,10.60
2022-12-08T23:22:22.478Z,10.63
2022-12-08T23:25:09.063Z,10.61
2022-12-08T23:27:55.200Z,10.67
2022-12-08T23:30:41.831Z,10.63
2022-12-08T23:33:28.186Z,10.70
2022-12-08T23:36:15.179Z,10.66
2022-12-08T23:39:01.363Z,10.69
2022-12-08T23:41:47.296Z,10.65
2022-12-08T23:44:33.224Z,10.67
2022-12-08T23:47:19.614Z,10.66
2022-12-08T23:50:07.144Z,10.68
2022-12-08T23:52:53.407Z,10.61
2022-12-08T23:55:39.267Z,10.64
2022-12-08T23:58:25.038Z,10.66
